Time;durP1;ratioP1;P1;durP2;ratioP2;P2;SDS_P1;SDS_P2;PMS_P1;PMS_P2;Temp;Humidity;BMP_temperature;BMP_pressure;BME280_temperature;BME280_humidity;BME280_pressure;Samples;Min_cycle;Max_cycle;Signal;HPM_P1;HPM_P2
2021/01/23 00:00:10;;;;;;;11.20;8.00;;;;;;;0.92;100.00;99078.72;5089711;28;20182;-69
2021/01/23 00:02:39;;;;;;;10.77;7.93;;;;;;;0.98;100.00;99072.38;5043777;28;20206;-69
2021/01/23 00:05:05;;;;;;;12.20;7.60;;;;;;;0.96;100.00;99077.16;5042052;28;20232;-69
2021/01/23 00:07:32;;;;;;;11.27;7.90;;;;;;;0.97;100.00;99068.06;5072042;28;20221;-69
2021/01/23 00:09:58;;;;;;;16.73;10.73;;;;;;;0.92;100.00;99068.84;5041425;28;20183;-69
2021/01/23 00:12:23;;;;;;;13.70;9.17;;;;;;;0.97;100.00;99068.06;5050617;28;20219;-69
2021/01/23 00:14:52;;;;;;;20.93;11.93;;;;;;;1.05;100.00;99064.97;5033507;28;20269;-70
2021/01/23 00:17:17;;;;;;;24.07;12.27;;;;;;;1.05;100.00;99059.63;5051630;28;20716;-69
2021/01/23 00:19:45;;;;;;;24.00;12.33;;;;;;;0.93;100.00;99057.06;5071924;28;20183;-69
2021/01/23 00:22:13;;;;;;;19.57;10.90;;;;;;;0.98;100.00;99059.00;5054627;28;20696;-69
2021/01/23 00:24:39;;;;;;;20.87;12.37;;;;;;;1.25;100.00;99050.75;5071587;28;20236;-70
2021/01/23 00:27:07;;;;;;;19.43;11.83;;;;;;;1.40;100.00;99048.22;5022635;28;20228;-69
2021/01/23 00:29:32;;;;;;;21.73;11.80;;;;;;;1.40;100.00;99050.91;5019160;28;20681;-69
2021/01/23 00:32:00;;;;;;;23.33;13.60;;;;;;;1.35;100.00;99056.19;5034637;28;20284;-69
2021/01/23 00:34:26;;;;;;;17.97;11.87;;;;;;;1.19;100.00;99056.28;5051429;28;20215;-69
2021/01/23 00:36:52;;;;;;;20.07;12.27;;;;;;;1.02;100.00;99050.22;5048668;28;20230;-69
2021/01/23 00:39:17;;;;;;;21.20;12.60;;;;;;;0.91;100.00;99050.38;5055254;28;20252;-69
2021/01/23 00:41:43;;;;;;;22.33;12.27;;;;;;;0.90;100.00;99044.22;5007475;28;20323;-70
2021/01/23 00:44:08;;;;;;;16.60;11.03;;;;;;;0.79;100.00;99044.38;5051622;28;20186;-70
2021/01/23 00:46:34;;;;;;;17.03;11.83;;;;;;;0.89;100.00;99020.44;5034278;28;20215;-69
2021/01/23 00:49:00;;;;;;;18.17;11.77;;;;;;;0.76;100.00;99028.84;5018498;28;20180;-70
2021/01/23 00:51:28;;;;;;;19.10;11.83;;;;;;;0.81;100.00;99036.91;5050542;28;20710;-69
2021/01/23 00:54:00;;;;;;;17.33;11.50;;;;;;;1.02;100.00;99033.41;5036049;28;20221;-69
2021/01/23 00:56:30;;;;;;;19.23;11.87;;;;;;;1.12;100.00;99028.16;5034200;28;20215;-70
2021/01/23 00:58:55;;;;;;;21.83;13.17;;;;;;;1.15;100.00;99023.94;5051578;28;20296;-70
2021/01/23 01:01:21;;;;;;;16.60;12.70;;;;;;;1.05;100.00;99032.91;5050816;28;20700;-69
2021/01/23 01:03:46;;;;;;;19.40;12.67;;;;;;;1.19;100.00;99034.91;5034568;28;20168;-69
2021/01/23 01:06:12;;;;;;;22.03;12.47;;;;;;;1.06;100.00;99031.84;5033634;28;20261;-70
2021/01/23 01:08:41;;;;;;;21.67;10.90;;;;;;;0.96;100.00;99039.75;5051212;28;20604;-69
2021/01/23 01:11:07;;;;;;;19.93;12.20;;;;;;;0.97;100.00;99044.03;5033463;28;20224;-69
2021/01/23 01:13:32;;;;;;;18.27;12.00;;;;;;;0.94;100.00;99048.00;5033964;28;20176;-69
2021/01/23 01:15:58;;;;;;;20.47;13.10;;;;;;;0.90;100.00;99046.09;5049901;28;20583;-69
2021/01/23 01:18:23;;;;;;;18.60;12.87;;;;;;;0.96;100.00;99050.44;5050798;28;20215;-69
2021/01/23 01:20:51;;;;;;;24.40;13.13;;;;;;;0.98;100.00;99048.31;5033943;28;20727;-70
2021/01/23 01:23:17;;;;;;;19.53;12.57;;;;;;;0.99;100.00;99044.56;5034743;28;20184;-70
2021/01/23 01:25:43;;;;;;;17.93;12.67;;;;;;;0.94;100.00;99041.88;5050826;28;20227;-70
2021/01/23 01:28:09;;;;;;;20.47;12.87;;;;;;;0.92;100.00;99033.31;5067711;28;20597;-69
2021/01/23 01:30:39;;;;;;;17.97;11.70;;;;;;;0.96;100.00;99032.53;5016908;28;20218;-69
2021/01/23 01:33:04;;;;;;;16.87;12.17;;;;;;;0.97;100.00;99033.34;5018046;28;20245;-69
2021/01/23 01:35:31;;;;;;;19.80;13.03;;;;;;;1.12;100.00;99034.31;5032936;28;20231;-70
2021/01/23 01:37:57;;;;;;;17.87;12.53;;;;;;;1.13;100.00;99042.06;5034325;28;20662;-69
2021/01/23 01:40:23;;;;;;;16.70;12.10;;;;;;;1.22;100.00;99040.56;5049364;28;20289;-69
2021/01/23 01:42:51;;;;;;;22.07;13.60;;;;;;;1.35;100.00;99032.13;5033940;28;20183;-70
2021/01/23 01:45:18;;;;;;;17.67;12.23;;;;;;;1.29;100.00;99030.47;5016361;28;20188;-70
2021/01/23 01:47:49;;;;;;;18.87;12.63;;;;;;;1.27;100.00;99029.94;5017752;28;20221;-69
2021/01/23 01:50:14;;;;;;;18.77;12.03;;;;;;;1.30;100.00;99033.94;5033408;28;20672;-70
2021/01/23 01:52:46;;;;;;;17.50;11.70;;;;;;;1.27;100.00;99026.47;5017426;28;20183;-70
2021/01/23 01:55:14;;;;;;;20.90;11.60;;;;;;;1.26;100.00;99040.88;5033336;28;20223;-70
2021/01/23 01:57:40;;;;;;;19.70;12.00;;;;;;;1.27;100.00;99043.28;5017847;28;20673;-69
2021/01/23 02:00:06;;;;;;;21.60;12.57;;;;;;;1.29;100.00;99051.06;5033894;28;20187;-69
2021/01/23 02:03:02;;;;;;;20.47;12.47;;;;;;;1.19;100.00;99043.75;5049904;28;20199;-70
2021/01/23 02:05:38;;;;;;;19.80;12.50;;;;;;;1.29;100.00;99046.53;5032922;28;20238;-69
2021/01/23 02:08:30;;;;;;;20.17;12.87;;;;;;;1.20;100.00;99041.88;5033747;28;20203;-69
2021/01/23 02:11:17;;;;;;;18.70;11.87;;;;;;;1.00;100.00;99040.88;5032597;28;20790;-70
2021/01/23 02:14:01;;;;;;;17.53;12.10;;;;;;;1.07;100.00;99036.13;5033272;28;20594;-70
2021/01/23 02:16:33;;;;;;;18.93;12.43;;;;;;;1.03;100.00;99037.69;5049394;28;20230;-69
2021/01/23 02:19:27;;;;;;;21.67;12.20;;;;;;;0.98;100.00;99043.78;5017545;28;20603;-70
2021/01/23 02:22:17;;;;;;;20.20;12.10;;;;;;;1.15;100.00;99042.66;5049136;28;20223;-69
2021/01/23 02:24:44;;;;;;;21.63;12.17;;;;;;;1.10;100.00;99041.78;5049703;28;20556;-69
2021/01/23 02:27:26;;;;;;;16.63;11.73;;;;;;;1.12;100.00;99044.19;5032638;28;20224;-69
2021/01/23 02:30:05;;;;;;;21.23;11.93;;;;;;;1.09;100.00;99042.03;5034347;28;20192;-69
2021/01/23 02:32:31;;;;;;;20.20;12.60;;;;;;;1.07;100.00;99046.81;5049758;28;20648;-70
2021/01/23 02:34:58;;;;;;;18.33;12.00;;;;;;;0.99;100.00;99047.25;5032909;28;20242;-69
2021/01/23 02:37:24;;;;;;;22.90;12.70;;;;;;;0.94;100.00;99055.22;5016810;28;20259;-70
2021/01/23 02:39:50;;;;;;;19.67;12.43;;;;;;;1.15;100.00;99060.53;5017489;28;20210;-69
2021/01/23 02:42:21;;;;;;;20.10;11.93;;;;;;;1.07;100.00;99057.50;5033524;28;20226;-69
2021/01/23 02:44:46;;;;;;;19.57;13.27;;;;;;;1.05;100.00;99063.09;5049729;28;20180;-69
2021/01/23 02:47:12;;;;;;;17.67;12.33;;;;;;;1.01;100.00;99063.84;5049283;28;20227;-69
2021/01/23 02:49:38;;;;;;;21.73;12.07;;;;;;;1.00;100.00;99067.59;5016951;28;20664;-69
2021/01/23 02:52:28;;;;;;;18.53;12.13;;;;;;;1.17;100.00;99063.75;5016347;28;20219;-69
2021/01/23 02:55:02;;;;;;;18.13;12.63;;;;;;;1.18;100.00;99060.03;5049990;28;20242;-69
2021/01/23 02:57:28;;;;;;;21.60;12.53;;;;;;;1.11;100.00;99055.94;5033177;28;20237;-69
2021/01/23 03:00:00;;;;;;;20.33;12.57;;;;;;;1.19;100.00;99064.31;5033284;28;20815;-70
2021/01/23 03:02:27;;;;;;;18.57;12.30;;;;;;;1.19;100.00;99062.47;5032636;28;20219;-70
2021/01/23 03:04:53;;;;;;;18.47;11.77;;;;;;;1.11;100.00;99058.63;5049163;28;20194;-69
2021/01/23 03:07:19;;;;;;;19.37;13.03;;;;;;;1.06;100.00;99050.53;5048991;28;20219;-69
2021/01/23 03:09:47;;;;;;;16.80;11.57;;;;;;;1.04;100.00;99058.00;5049623;28;20180;-70
2021/01/23 03:12:20;;;;;;;19.43;12.77;;;;;;;1.02;100.00;99046.75;5066745;28;20227;-69
2021/01/23 03:14:45;;;;;;;17.77;12.20;;;;;;;1.22;100.00;99048.56;5052531;28;20256;-70
2021/01/23 03:17:11;;;;;;;18.13;13.47;;;;;;;1.36;100.00;99054.34;5068967;28;20234;-70
2021/01/23 03:19:37;;;;;;;20.57;13.30;;;;;;;1.48;100.00;99057.66;5052971;28;20167;-69
2021/01/23 03:22:06;;;;;;;23.97;13.77;;;;;;;1.47;100.00;99064.88;5035420;28;20221;-70
2021/01/23 03:24:31;;;;;;;22.20;13.33;;;;;;;1.39;100.00;99057.34;5053064;28;20244;-69
2021/01/23 03:26:59;;;;;;;18.03;13.00;;;;;;;1.17;100.00;99059.25;5052108;28;20854;-70
2021/01/23 03:29:24;;;;;;;22.80;13.17;;;;;;;1.03;100.00;99059.09;5053200;28;20739;-69
2021/01/23 03:31:50;;;;;;;20.57;13.03;;;;;;;1.09;100.00;99060.75;5052103;28;20231;-70
2021/01/23 03:34:16;;;;;;;21.80;12.57;;;;;;;1.15;100.00;99056.00;5071558;28;20203;-69
2021/01/23 03:36:42;;;;;;;19.60;12.73;;;;;;;1.09;100.00;99055.41;5072504;28;20218;-69
2021/01/23 03:39:07;;;;;;;19.47;13.17;;;;;;;1.13;100.00;99060.78;5056664;28;20193;-70
2021/01/23 03:41:33;;;;;;;18.27;13.23;;;;;;;1.13;100.00;99058.09;5055525;28;20716;-69
2021/01/23 03:43:59;;;;;;;20.87;12.87;;;;;;;1.12;100.00;99057.56;5072836;28;20201;-69
2021/01/23 03:46:25;;;;;;;20.40;12.80;;;;;;;1.13;100.00;99062.66;5038489;28;20268;-70
2021/01/23 03:48:53;;;;;;;20.77;13.40;;;;;;;1.17;100.00;99064.59;5069079;28;20213;-69
2021/01/23 03:51:19;;;;;;;23.43;13.03;;;;;;;1.01;100.00;99053.97;5075558;28;20779;-70
2021/01/23 03:53:44;;;;;;;21.17;13.50;;;;;;;1.15;100.00;99061.34;5092750;28;20182;-70
2021/01/23 03:56:11;;;;;;;21.53;13.23;;;;;;;1.11;100.00;99063.97;5075845;28;20228;-71
2021/01/23 03:58:36;;;;;;;20.10;13.30;;;;;;;1.04;100.00;99064.16;5076690;28;20210;-71
2021/01/23 04:01:03;;;;;;;23.40;13.73;;;;;;;1.10;100.00;99062.34;5094291;28;20221;-70
2021/01/23 04:03:28;;;;;;;19.07;12.80;;;;;;;0.96;100.00;99050.44;5076816;28;20182;-70
2021/01/23 04:05:54;;;;;;;21.67;12.77;;;;;;;0.88;100.00;99061.53;5058262;28;20756;-70
2021/01/23 04:08:19;;;;;;;19.43;13.40;;;;;;;0.92;100.00;99054.69;5075915;28;20199;-70
2021/01/23 04:10:48;;;;;;;21.87;13.07;;;;;;;1.02;100.00;99044.88;5075230;28;20226;-70
2021/01/23 04:13:13;;;;;;;25.63;13.63;;;;;;;0.98;100.00;99040.31;5058911;28;20206;-70
2021/01/23 04:15:41;;;;;;;18.57;12.97;;;;;;;1.02;100.00;99049.44;5073905;28;20229;-70
2021/01/23 04:18:07;;;;;;;21.00;13.63;;;;;;;1.13;100.00;99053.84;5076343;28;20218;-70
2021/01/23 04:20:35;;;;;;;24.37;13.40;;;;;;;0.97;100.00;99057.38;5075145;28;20210;-70
2021/01/23 04:23:01;;;;;;;19.83;13.03;;;;;;;0.89;100.00;99057.84;5059735;28;20224;-70
2021/01/23 04:25:29;;;;;;;22.03;13.60;;;;;;;0.97;100.00;99057.38;5091456;28;20300;-70
2021/01/23 04:27:55;;;;;;;17.37;12.37;;;;;;;1.18;100.00;99049.34;5059006;28;20255;-70
2021/01/23 04:30:24;;;;;;;21.37;12.70;;;;;;;1.06;100.00;99053.22;5091455;28;20182;-70
2021/01/23 04:32:50;;;;;;;21.43;13.33;;;;;;;1.03;100.00;99045.72;5043024;28;20178;-70
2021/01/23 04:35:16;;;;;;;19.90;12.70;;;;;;;0.98;100.00;99056.34;5057333;28;20663;-70
2021/01/23 04:37:41;;;;;;;20.60;12.40;;;;;;;1.01;100.00;99053.16;5075305;28;20198;-70
2021/01/23 04:40:08;;;;;;;17.80;12.20;;;;;;;1.01;100.00;99050.47;5091573;28;20507;-70
2021/01/23 04:42:34;;;;;;;18.90;12.33;;;;;;;1.13;100.00;99052.75;5075109;28;20175;-70
2021/01/23 04:45:00;;;;;;;18.53;12.13;;;;;;;1.07;100.00;99044.94;5057699;28;20182;-70
2021/01/23 04:47:28;;;;;;;19.33;12.90;;;;;;;1.08;100.00;99054.59;5073851;28;20230;-70
2021/01/23 04:49:57;;;;;;;23.63;13.00;;;;;;;1.25;100.00;99050.75;5091962;28;20191;-70
2021/01/23 04:52:22;;;;;;;24.33;12.73;;;;;;;1.11;100.00;99054.06;5074335;28;20222;-70
2021/01/23 04:54:50;;;;;;;17.30;12.57;;;;;;;1.00;100.00;99051.56;5091372;28;20617;-70
2021/01/23 04:57:15;;;;;;;23.37;14.77;;;;;;;1.01;100.00;99056.66;5058017;28;20648;-70
2021/01/23 04:59:41;;;;;;;22.67;14.63;;;;;;;1.05;100.00;99048.94;5074705;28;20201;-70
2021/01/23 05:02:23;;;;;;;24.77;14.13;;;;;;;1.20;100.00;99048.03;5074115;28;20629;-70
2021/01/23 05:04:52;;;;;;;19.67;12.23;;;;;;;1.31;100.00;99044.41;5074775;28;20231;-70
2021/01/23 05:07:28;;;;;;;21.90;12.50;;;;;;;1.29;100.00;99038.50;5074346;28;20226;-70
2021/01/23 05:10:12;;;;;;;22.10;13.67;;;;;;;1.20;100.00;99037.34;5058033;28;20261;-71
2021/01/23 05:12:39;;;;;;;19.37;12.87;;;;;;;1.24;100.00;99030.41;5057576;28;20271;-70
2021/01/23 05:15:20;;;;;;;22.13;14.43;;;;;;;1.26;100.00;99041.69;5057339;28;20271;-70
2021/01/23 05:17:46;;;;;;;24.00;14.13;;;;;;;1.18;100.00;99034.09;5091474;28;20222;-70
2021/01/23 05:20:14;;;;;;;20.70;13.60;;;;;;;1.37;100.00;99031.88;5056920;28;20190;-70
2021/01/23 05:22:47;;;;;;;24.27;13.80;;;;;;;1.43;100.00;99037.03;5075032;28;20187;-70
2021/01/23 05:25:13;;;;;;;21.37;13.57;;;;;;;1.40;100.00;99036.75;5073143;28;20216;-70
2021/01/23 05:27:47;;;;;;;19.33;14.00;;;;;;;1.57;100.00;99040.91;5057371;28;20197;-70
2021/01/23 05:30:13;;;;;;;20.77;13.83;;;;;;;1.45;100.00;99034.91;5073648;28;20176;-70
2021/01/23 05:32:39;;;;;;;25.60;14.73;;;;;;;1.30;100.00;99036.63;5074235;28;20190;-70
2021/01/23 05:35:17;;;;;;;20.87;14.63;;;;;;;1.42;100.00;99034.63;5090443;28;20643;-70
2021/01/23 05:37:45;;;;;;;21.93;13.50;;;;;;;1.38;100.00;99044.22;5091764;28;20271;-70
2021/01/23 05:40:10;;;;;;;19.73;13.57;;;;;;;1.22;100.00;99037.88;5090332;28;20187;-70
2021/01/23 05:42:43;;;;;;;22.70;13.77;;;;;;;1.12;100.00;99037.00;5073644;28;20197;-70
2021/01/23 05:45:08;;;;;;;21.20;13.67;;;;;;;1.08;100.00;99043.06;5056222;28;20663;-70
2021/01/23 05:47:34;;;;;;;21.00;13.50;;;;;;;1.03;100.00;99035.81;5090768;28;20197;-70
2021/01/23 05:50:00;;;;;;;22.37;13.57;;;;;;;0.98;100.00;99041.09;5092256;28;20179;-70
2021/01/23 05:52:26;;;;;;;18.77;13.10;;;;;;;1.00;100.00;99038.19;5073050;28;20229;-70
2021/01/23 05:54:54;;;;;;;20.33;13.97;;;;;;;1.05;100.00;99043.59;5090309;28;20256;-70
2021/01/23 05:57:20;;;;;;;25.00;15.07;;;;;;;1.05;100.00;99033.72;5072265;28;20309;-70
2021/01/23 05:59:45;;;;;;;19.70;14.40;;;;;;;1.22;100.00;99035.22;5053672;28;20186;-70
2021/01/23 06:02:12;;;;;;;23.43;15.63;;;;;;;1.13;100.00;99037.78;5069444;28;20305;-70
2021/01/23 06:04:42;;;;;;;23.30;14.53;;;;;;;1.36;100.00;99044.47;5020162;28;20191;-70
2021/01/23 06:07:08;;;;;;;22.63;14.53;;;;;;;1.40;100.00;99040.22;5070273;28;20251;-70
2021/01/23 06:09:38;;;;;;;22.63;14.10;;;;;;;1.40;100.00;99047.44;5070231;28;20186;-70
2021/01/23 06:12:04;;;;;;;21.60;13.70;;;;;;;1.36;100.00;99062.38;5052948;28;20253;-70
2021/01/23 06:14:39;;;;;;;19.47;14.10;;;;;;;1.47;100.00;99058.75;5036468;28;20199;-70
2021/01/23 06:17:05;;;;;;;25.30;14.97;;;;;;;1.51;100.00;99055.28;5070288;28;20234;-70
2021/01/23 06:19:31;;;;;;;25.00;15.40;;;;;;;1.51;100.00;99060.63;5072016;28;20175;-70
2021/01/23 06:21:59;;;;;;;23.63;15.43;;;;;;;1.45;100.00;99055.47;5071423;28;20226;-70
2021/01/23 06:24:30;;;;;;;25.90;15.80;;;;;;;1.40;100.00;99063.47;5036929;28;20725;-70
2021/01/23 06:27:01;;;;;;;26.67;15.43;;;;;;;1.40;100.00;99064.28;5069691;28;20210;-70
2021/01/23 06:29:34;;;;;;;26.03;15.47;;;;;;;1.25;100.00;99066.81;5037242;28;20246;-70
2021/01/23 06:32:12;;;;;;;25.60;15.93;;;;;;;1.13;100.00;99072.53;5016497;28;20223;-70
2021/01/23 06:34:50;;;;;;;26.67;16.07;;;;;;;1.13;100.00;99072.53;5050577;28;20227;-70
2021/01/23 06:37:23;;;;;;;28.73;15.67;;;;;;;1.28;100.00;99062.81;5051031;28;20254;-70
2021/01/23 06:40:33;;;;;;;28.97;16.77;;;;;;;1.17;100.00;99069.94;5036499;28;20186;-70
2021/01/23 06:42:58;;;;;;;26.07;15.43;;;;;;;1.33;100.00;99068.22;5019787;28;20230;-70
2021/01/23 06:45:28;;;;;;;26.37;16.57;;;;;;;1.42;100.00;99058.69;5019018;28;20201;-70
2021/01/23 06:47:57;;;;;;;27.73;16.47;;;;;;;1.49;100.00;99060.09;5054546;28;20202;-70
2021/01/23 06:50:26;;;;;;;37.80;18.00;;;;;;;1.39;100.00;99051.97;5052635;28;20625;-71
2021/01/23 06:52:57;;;;;;;29.60;16.80;;;;;;;1.35;100.00;99045.50;5053376;28;20187;-70
2021/01/23 06:56:07;;;;;;;27.10;16.20;;;;;;;1.36;100.00;99052.47;5035791;28;20218;-70
2021/01/23 06:58:35;;;;;;;29.70;17.03;;;;;;;0.96;100.00;99031.75;5050416;28;20241;-70
2021/01/23 07:01:01;;;;;;;32.63;19.07;;;;;;;1.05;100.00;99046.28;5069483;28;20230;-70
2021/01/23 07:03:27;;;;;;;28.20;17.67;;;;;;;1.05;100.00;99055.09;5036889;28;20623;-70
2021/01/23 07:05:58;;;;;;;28.40;17.33;;;;;;;1.23;100.00;99055.56;5052833;28;20306;-70
2021/01/23 07:08:27;;;;;;;27.40;16.47;;;;;;;1.20;100.00;99050.69;5070240;28;20236;-70
2021/01/23 07:11:15;;;;;;;25.13;16.43;;;;;;;1.09;100.00;99055.41;5056898;28;20290;-70
2021/01/23 07:14:06;;;;;;;29.83;15.87;;;;;;;1.03;100.00;99059.88;5057856;28;20187;-70
2021/01/23 07:16:39;;;;;;;24.80;16.27;;;;;;;1.06;100.00;99050.53;5035716;28;20224;-73
2021/01/23 07:19:08;;;;;;;25.20;15.47;;;;;;;1.00;100.00;99051.56;5021608;28;20244;-70
2021/01/23 07:21:40;;;;;;;29.77;16.83;;;;;;;0.95;100.00;99051.47;5032792;28;20640;-70
2021/01/23 07:24:07;;;;;;;23.17;15.63;;;;;;;0.92;100.00;99055.47;5073982;28;20644;-70
2021/01/23 07:26:33;;;;;;;26.03;16.43;;;;;;;1.10;100.00;99046.31;5056578;28;20237;-71
2021/01/23 07:29:01;;;;;;;31.10;17.77;;;;;;;1.13;100.00;99048.47;5076115;28;20218;-69
2021/01/23 07:31:28;;;;;;;31.23;17.87;;;;;;;1.13;100.00;99050.09;5058618;28;20772;-70
2021/01/23 07:33:54;;;;;;;27.87;17.03;;;;;;;1.13;100.00;99047.41;5072832;28;20182;-70
2021/01/23 07:36:55;;;;;;;28.20;17.30;;;;;;;1.23;100.00;99047.53;5073010;28;20222;-70
2021/01/23 07:39:25;;;;;;;28.20;17.70;;;;;;;1.34;100.00;99059.94;5015833;28;20194;-71
2021/01/23 07:41:55;;;;;;;30.97;18.93;;;;;;;1.36;100.00;99052.47;5048793;28;20758;-70
2021/01/23 07:44:23;;;;;;;26.47;16.70;;;;;;;1.40;100.00;99042.88;5057265;28;20194;-71
2021/01/23 07:46:49;;;;;;;30.80;19.50;;;;;;;1.47;100.00;99034.69;5056839;28;20731;-70
2021/01/23 07:49:23;;;;;;;30.90;18.43;;;;;;;1.44;100.00;99033.28;5028968;28;20190;-70
2021/01/23 07:51:52;;;;;;;32.57;19.57;;;;;;;1.50;100.00;99016.22;5042134;28;20214;-70
2021/01/23 07:54:17;;;;;;;33.37;19.30;;;;;;;1.55;100.00;99016.28;5059566;28;20260;-71
2021/01/23 07:56:56;;;;;;;28.13;18.40;;;;;;;1.30;100.00;99023.25;5075061;28;20230;-70
2021/01/23 07:59:40;;;;;;;31.23;19.27;;;;;;;1.44;100.00;99019.91;5059962;28;20190;-71
2021/01/23 08:02:06;;;;;;;35.63;21.67;;;;;;;1.31;100.00;99016.88;5059061;28;20702;-71
2021/01/23 08:04:32;;;;;;;38.80;21.63;;;;;;;1.56;100.00;99015.22;5075729;28;20236;-70
2021/01/23 08:07:31;;;;;;;35.90;21.23;;;;;;;1.59;100.00;99004.84;5092183;28;20215;-70
2021/01/23 08:10:04;;;;;;;35.97;21.20;;;;;;;1.71;100.00;98999.31;5063168;28;20710;-71
2021/01/23 08:12:29;;;;;;;38.47;21.60;;;;;;;1.66;100.00;99000.06;5086244;28;20210;-73
2021/01/23 08:14:55;;;;;;;38.33;21.83;;;;;;;1.88;100.00;98998.06;5075704;28;20297;-70
2021/01/23 08:17:44;;;;;;;39.73;22.10;;;;;;;2.04;100.00;98989.09;5057912;28;20219;-71
2021/01/23 08:20:11;;;;;;;33.47;22.03;;;;;;;2.00;100.00;98986.13;5082373;28;20190;-70
2021/01/23 08:22:58;;;;;;;33.33;21.87;;;;;;;2.09;100.00;98992.59;5038597;28;20556;-70
2021/01/23 08:25:32;;;;;;;38.80;22.60;;;;;;;2.02;100.00;98986.66;5050123;28;20244;-70
2021/01/23 08:27:58;;;;;;;35.00;22.10;;;;;;;2.22;100.00;98992.16;5056538;28;20210;-71
2021/01/23 08:30:26;;;;;;;37.10;21.90;;;;;;;2.12;100.00;98981.38;5073209;28;20213;-69
2021/01/23 08:32:52;;;;;;;33.83;22.07;;;;;;;2.24;100.00;98981.97;5073075;28;20186;-70
2021/01/23 08:35:22;;;;;;;34.07;20.73;;;;;;;2.37;100.00;98984.19;5054205;28;20211;-71
2021/01/23 08:37:51;;;;;;;31.90;20.70;;;;;;;2.39;100.00;98980.19;5056350;28;20202;-72
2021/01/23 08:40:20;;;;;;;32.13;20.40;;;;;;;2.47;100.00;98970.84;5062657;28;20179;-71
2021/01/23 08:42:48;;;;;;;31.63;20.27;;;;;;;2.51;100.00;98979.94;5035975;28;20183;-69
2021/01/23 08:45:20;;;;;;;30.33;20.80;;;;;;;2.55;100.00;98979.19;5052924;28;20557;-71
2021/01/23 08:47:46;;;;;;;27.60;20.23;;;;;;;2.59;100.00;98979.47;5055158;28;20588;-69
2021/01/23 08:50:12;;;;;;;31.50;19.97;;;;;;;2.67;100.00;99002.00;5053968;28;20175;-71
2021/01/23 08:52:37;;;;;;;32.23;19.77;;;;;;;2.66;100.00;98996.91;5055028;28;20256;-71
2021/01/23 08:55:04;;;;;;;30.13;20.23;;;;;;;2.53;100.00;99010.00;5063232;28;20694;-71
2021/01/23 08:57:30;;;;;;;31.17;20.87;;;;;;;2.73;100.00;99019.72;5068619;28;20234;-69
2021/01/23 08:59:55;;;;;;;28.53;19.60;;;;;;;2.66;100.00;99017.53;5057409;28;20176;-70
2021/01/23 09:02:21;;;;;;;26.67;18.23;;;;;;;2.77;100.00;99022.69;5076478;28;20218;-69
2021/01/23 09:04:47;;;;;;;27.83;18.97;;;;;;;2.77;100.00;99026.16;5054884;28;20259;-69
2021/01/23 09:07:15;;;;;;;25.73;18.10;;;;;;;2.70;100.00;99022.91;5067659;28;20246;-69
2021/01/23 09:09:45;;;;;;;27.63;18.67;;;;;;;2.89;100.00;99015.22;5067869;28;20195;-69
2021/01/23 09:12:10;;;;;;;24.60;17.80;;;;;;;2.93;100.00;99014.44;5057344;28;20265;-69
2021/01/23 09:14:38;;;;;;;26.20;18.93;;;;;;;3.18;100.00;99019.84;5053110;28;20199;-69
2021/01/23 09:17:06;;;;;;;27.23;18.00;;;;;;;3.18;100.00;99006.44;5065320;28;20231;-70
2021/01/23 09:19:32;;;;;;;26.97;18.17;;;;;;;3.27;100.00;99010.22;5030468;28;20202;-70
2021/01/23 09:22:00;;;;;;;26.73;18.17;;;;;;;3.29;100.00;99011.56;5049188;28;20215;-69
2021/01/23 09:24:26;;;;;;;26.63;17.93;;;;;;;3.33;100.00;99022.56;5051797;28;20186;-69
2021/01/23 09:26:51;;;;;;;30.70;21.93;;;;;;;3.33;100.00;99020.66;5060708;28;20223;-70
2021/01/23 09:29:17;;;;;;;24.73;17.57;;;;;;;3.37;100.00;99016.41;5075496;28;20183;-70
2021/01/23 09:31:43;;;;;;;25.67;18.00;;;;;;;3.29;100.00;99024.16;5056034;28;20242;-70
2021/01/23 09:34:11;;;;;;;23.70;17.70;;;;;;;3.44;100.00;99016.94;5018964;28;20215;-71
2021/01/23 09:36:37;;;;;;;23.87;17.20;;;;;;;3.35;100.00;99020.41;5035235;28;20219;-70
2021/01/23 09:39:03;;;;;;;22.03;16.97;;;;;;;3.35;100.00;99021.25;5067902;28;20218;-73
2021/01/23 09:41:29;;;;;;;24.43;17.00;;;;;;;3.39;100.00;99014.25;5034501;28;20224;-70
2021/01/23 09:43:57;;;;;;;24.37;16.07;;;;;;;3.52;100.00;99009.19;5051925;28;20234;-71
2021/01/23 09:46:23;;;;;;;31.17;21.90;;;;;;;3.53;100.00;99016.13;5043272;28;20693;-71
2021/01/23 09:48:48;;;;;;;40.23;30.07;;;;;;;3.51;100.00;99012.91;5063932;28;20673;-70
2021/01/23 09:51:16;;;;;;;41.40;28.57;;;;;;;3.49;100.00;99020.44;5052578;28;20249;-71
2021/01/23 09:53:44;;;;;;;24.17;17.13;;;;;;;3.56;100.00;99026.34;5067127;28;20560;-70
2021/01/23 09:56:10;;;;;;;24.63;17.47;;;;;;;3.60;100.00;99016.69;5042339;28;20239;-71
2021/01/23 09:58:38;;;;;;;23.27;16.73;;;;;;;3.93;100.00;99016.16;5069822;28;20210;-71
2021/01/23 10:01:08;;;;;;;23.47;16.77;;;;;;;3.93;100.00;99021.53;5037111;28;20246;-70
2021/01/23 10:03:38;;;;;;;23.87;16.33;;;;;;;3.80;100.00;99014.00;5061296;28;20237;-71
2021/01/23 10:06:04;;;;;;;22.87;16.40;;;;;;;4.06;100.00;99015.59;5065927;28;20228;-72
2021/01/23 10:08:30;;;;;;;23.23;16.23;;;;;;;4.22;100.00;99010.72;5036909;28;20795;-70
2021/01/23 10:10:55;;;;;;;21.83;16.40;;;;;;;4.46;100.00;99011.75;5055634;28;20231;-69
2021/01/23 10:13:21;;;;;;;22.67;15.53;;;;;;;4.36;100.00;99014.47;5067560;28;20184;-70
2021/01/23 10:15:47;;;;;;;22.63;16.73;;;;;;;4.58;100.00;99014.97;5034217;28;20700;-70
2021/01/23 10:18:15;;;;;;;22.33;15.20;;;;;;;4.83;100.00;99012.16;5065067;28;20285;-70
2021/01/23 10:20:43;;;;;;;22.17;15.53;;;;;;;5.01;100.00;99010.44;5065268;28;20222;-70
2021/01/23 10:23:12;;;;;;;22.40;15.20;;;;;;;5.38;100.00;99010.78;5033583;28;20190;-70
2021/01/23 10:25:38;;;;;;;24.10;16.43;;;;;;;5.51;100.00;99002.06;5031770;28;20225;-70
2021/01/23 10:28:03;;;;;;;21.70;15.43;;;;;;;5.56;100.00;99002.03;5075322;28;20211;-70
2021/01/23 10:30:29;;;;;;;19.53;14.60;;;;;;;5.58;99.49;98989.09;5051639;28;20224;-69
2021/01/23 10:32:57;;;;;;;18.40;13.73;;;;;;;5.55;99.83;98981.56;5068213;28;20186;-69
2021/01/23 10:35:23;;;;;;;19.80;13.93;;;;;;;5.43;100.00;98986.53;5054073;28;20194;-69
2021/01/23 10:37:51;;;;;;;17.50;12.37;;;;;;;5.21;99.79;98994.19;5073516;28;20565;-69
2021/01/23 10:40:17;;;;;;;20.17;12.30;;;;;;;5.33;100.00;98985.78;5088614;28;20247;-69
2021/01/23 10:42:43;;;;;;;17.00;12.40;;;;;;;5.59;99.69;98975.38;5071150;28;20288;-70
2021/01/23 10:45:09;;;;;;;16.93;12.00;;;;;;;5.70;98.91;98976.91;5074609;28;20241;-70
2021/01/23 10:47:42;;;;;;;16.70;12.57;;;;;;;5.86;97.90;98965.75;5062182;28;20285;-70
2021/01/23 10:50:11;;;;;;;16.03;12.20;;;;;;;5.90;97.41;98950.63;5073532;28;20257;-71
2021/01/23 10:52:39;;;;;;;14.90;11.93;;;;;;;5.90;96.82;98961.41;5071860;28;20267;-69
2021/01/23 10:55:06;;;;;;;16.43;12.03;;;;;;;5.82;96.46;98959.31;5100512;28;20678;-70
2021/01/23 10:57:31;;;;;;;17.20;11.43;;;;;;;5.90;95.91;98956.00;5058860;28;20217;-71
2021/01/23 10:59:57;;;;;;;16.90;12.07;;;;;;;5.64;96.90;98958.34;5074730;28;20543;-71
2021/01/23 11:02:23;;;;;;;17.87;12.20;;;;;;;5.62;96.78;98952.47;5092450;28;20221;-70
2021/01/23 11:04:48;;;;;;;16.47;11.83;;;;;;;5.88;97.35;98947.41;5092983;28;20240;-70
2021/01/23 11:07:14;;;;;;;15.77;11.87;;;;;;;5.90;94.94;98945.22;5076018;28;20249;-71
2021/01/23 11:09:40;;;;;;;15.33;11.20;;;;;;;5.75;92.86;98942.69;5096332;28;20532;-71
2021/01/23 11:12:09;;;;;;;17.53;10.50;;;;;;;5.78;92.42;98946.69;5087622;28;20217;-71
2021/01/23 11:14:35;;;;;;;12.53;8.80;;;;;;;5.74;91.96;98934.09;5096147;28;20557;-70
2021/01/23 11:17:01;;;;;;;13.83;9.60;;;;;;;5.74;92.08;98941.06;5113197;28;20274;-72
2021/01/23 11:19:29;;;;;;;12.93;9.93;;;;;;;5.69;91.93;98931.41;5114091;28;20176;-71
2021/01/23 11:21:57;;;;;;;13.73;9.90;;;;;;;5.95;91.77;98937.13;5096305;28;20685;-71
2021/01/23 11:24:23;;;;;;;13.10;9.37;;;;;;;5.93;90.73;98935.78;5079772;28;20186;-70
2021/01/23 11:26:49;;;;;;;12.57;9.70;;;;;;;5.89;91.12;98932.03;5112917;28;20275;-70